This is the latest recevied weather packets stored in our database for station/object KG7QQL. If no packets are shown the sender has not sent any weather packets the latest 1 day(s).
| Time | Temp. | Humidity | Pressure | Rain* | Wind** | Luminosity | Snow |
|---|---|---|---|---|---|---|---|
| 1778099435 | 14.44° C | 77% | - | 0 mm | - | - | - |
| 1778099132 | 14.44° C | 78% | - | 0 mm | - | - | - |
| 1778097009 | 13.89° C | 80% | - | 0 mm | - | - | - |
| 1778095494 | 13.33° C | 82% | - | 0 mm | - | - | - |
| 1778094887 | 13.33° C | 83% | - | 0 mm | - | - | - |
| 1778091553 | 12.78° C | 87% | - | 0 mm | - | - | - |
| 1778090643 | 12.78° C | 89% | - | 0 mm | - | - | - |
| 1778090340 | 12.78° C | 89% | - | 0 mm | - | - | - |
| 1778087613 | 11.67° C | 94% | - | 0 mm | - | - | - |
| 1778087311 | 11.67° C | 93% | - | 0 mm | - | - | - |
| 1778085796 | 12.22° C | 93% | - | 0 mm | - | - | - |
| 1778085188 | 11.67° C | 93% | - | 0 mm | - | - | - |
| 1778083364 | 11.67° C | 97% | - | 0 mm | - | - | - |
| 1778083064 | 11.67° C | 97% | - | 0 mm | - | - | - |
| 1778082760 | 11.67° C | 98% | - | 0 mm | - | - | - |
| 1778081330 | 11.11° C | 98% | - | 0 mm | - | - | - |
| 1778081027 | 11.11° C | 98% | - | 0 mm | - | - | - |
| 1778079816 | 11.11° C | 98% | - | 0 mm | - | - | - |
| 1778079210 | 11.11° C | 98% | - | 0 mm | - | - | - |
| 1778078603 | 11.11° C | 98% | - | 0 mm | - | - | - |
| 1778077998 | 11.11° C | 98% | - | 0 mm | - | - | - |
| 1778076790 | 11.11° C | 97% | - | 0 mm | - | - | - |
| 1778076488 | 11.11° C | 97% | - | 0 mm | - | - | - |
| 1778074668 | 11.11° C | 96% | - | 0 mm | - | - | - |
| 1778074061 | 11.11° C | 95% | - | 0 mm | - | - | - |
* Rain latest hour (hover to see other rain measurements)
** Current wind speed in m/s (hover to see current wind gust speed)